sensor_id;sensor_type;location;lat;lon;timestamp;P1;durP1;ratioP1;P2;durP2;ratioP2
3379;SDS011;1703;51.964;7.642;2022-12-07T00:00:17;16.13;;;10.57;;
3379;SDS011;1703;51.964;7.642;2022-12-07T00:02:44;11.97;;;10.27;;
3379;SDS011;1703;51.964;7.642;2022-12-07T00:05:11;12.97;;;10.67;;
3379;SDS011;1703;51.964;7.642;2022-12-07T00:07:38;13.83;;;10.37;;
3379;SDS011;1703;51.964;7.642;2022-12-07T00:10:06;14.03;;;9.77;;
3379;SDS011;1703;51.964;7.642;2022-12-07T00:12:33;13.20;;;10.30;;
3379;SDS011;1703;51.964;7.642;2022-12-07T00:15:00;17.33;;;10.93;;
3379;SDS011;1703;51.964;7.642;2022-12-07T00:17:27;13.27;;;9.47;;
3379;SDS011;1703;51.964;7.642;2022-12-07T00:19:54;12.37;;;9.47;;
3379;SDS011;1703;51.964;7.642;2022-12-07T00:22:21;18.03;;;10.83;;
3379;SDS011;1703;51.964;7.642;2022-12-07T00:24:47;13.00;;;10.33;;
3379;SDS011;1703;51.964;7.642;2022-12-07T00:27:15;12.97;;;9.27;;
3379;SDS011;1703;51.964;7.642;2022-12-07T00:29:42;14.27;;;10.00;;
3379;SDS011;1703;51.964;7.642;2022-12-07T00:32:09;11.90;;;10.20;;
3379;SDS011;1703;51.964;7.642;2022-12-07T00:34:36;8.70;;;7.60;;
3379;SDS011;1703;51.964;7.642;2022-12-07T00:37:03;12.43;;;8.60;;
3379;SDS011;1703;51.964;7.642;2022-12-07T00:39:30;14.20;;;7.90;;
3379;SDS011;1703;51.964;7.642;2022-12-07T00:41:57;12.10;;;8.27;;
3379;SDS011;1703;51.964;7.642;2022-12-07T00:44:25;11.80;;;8.70;;
3379;SDS011;1703;51.964;7.642;2022-12-07T00:46:52;15.43;;;9.60;;
3379;SDS011;1703;51.964;7.642;2022-12-07T00:49:19;11.10;;;8.70;;
3379;SDS011;1703;51.964;7.642;2022-12-07T00:51:47;9.67;;;8.40;;
3379;SDS011;1703;51.964;7.642;2022-12-07T00:54:14;11.10;;;8.07;;
3379;SDS011;1703;51.964;7.642;2022-12-07T00:56:41;11.93;;;8.43;;
3379;SDS011;1703;51.964;7.642;2022-12-07T00:59:10;8.83;;;7.90;;
3379;SDS011;1703;51.964;7.642;2022-12-07T01:01:39;11.20;;;8.63;;
3379;SDS011;1703;51.964;7.642;2022-12-07T01:04:06;10.37;;;7.00;;
3379;SDS011;1703;51.964;7.642;2022-12-07T01:06:33;10.07;;;7.60;;
3379;SDS011;1703;51.964;7.642;2022-12-07T01:09:00;11.90;;;8.10;;
3379;SDS011;1703;51.964;7.642;2022-12-07T01:11:29;11.30;;;9.40;;
3379;SDS011;1703;51.964;7.642;2022-12-07T01:13:57;10.93;;;8.37;;
3379;SDS011;1703;51.964;7.642;2022-12-07T01:16:25;11.33;;;8.37;;
3379;SDS011;1703;51.964;7.642;2022-12-07T01:18:56;12.57;;;8.37;;
3379;SDS011;1703;51.964;7.642;2022-12-07T01:21:24;12.17;;;8.50;;
3379;SDS011;1703;51.964;7.642;2022-12-07T01:23:52;9.30;;;8.30;;
3379;SDS011;1703;51.964;7.642;2022-12-07T01:26:20;12.40;;;9.60;;
3379;SDS011;1703;51.964;7.642;2022-12-07T01:28:48;11.30;;;8.17;;
3379;SDS011;1703;51.964;7.642;2022-12-07T01:31:15;10.90;;;7.60;;
3379;SDS011;1703;51.964;7.642;2022-12-07T01:33:44;14.60;;;7.13;;
3379;SDS011;1703;51.964;7.642;2022-12-07T01:36:15;10.03;;;7.20;;
3379;SDS011;1703;51.964;7.642;2022-12-07T01:38:44;12.27;;;8.87;;
3379;SDS011;1703;51.964;7.642;2022-12-07T01:41:12;7.53;;;6.23;;
3379;SDS011;1703;51.964;7.642;2022-12-07T01:44:06;12.90;;;7.83;;
3379;SDS011;1703;51.964;7.642;2022-12-07T01:46:44;9.67;;;7.57;;
3379;SDS011;1703;51.964;7.642;2022-12-07T01:49:12;9.33;;;7.80;;
3379;SDS011;1703;51.964;7.642;2022-12-07T01:51:54;9.53;;;7.80;;
3379;SDS011;1703;51.964;7.642;2022-12-07T01:54:26;11.80;;;8.87;;
3379;SDS011;1703;51.964;7.642;2022-12-07T01:56:53;11.00;;;8.20;;
3379;SDS011;1703;51.964;7.642;2022-12-07T01:59:24;11.63;;;8.83;;
3379;SDS011;1703;51.964;7.642;2022-12-07T02:01:52;10.80;;;7.70;;
3379;SDS011;1703;51.964;7.642;2022-12-07T02:04:21;12.53;;;9.47;;
3379;SDS011;1703;51.964;7.642;2022-12-07T02:06:48;13.03;;;8.07;;
3379;SDS011;1703;51.964;7.642;2022-12-07T02:09:16;12.47;;;9.33;;
3379;SDS011;1703;51.964;7.642;2022-12-07T02:11:43;9.90;;;7.93;;
3379;SDS011;1703;51.964;7.642;2022-12-07T02:14:10;15.77;;;8.47;;
3379;SDS011;1703;51.964;7.642;2022-12-07T02:16:42;15.43;;;8.67;;
3379;SDS011;1703;51.964;7.642;2022-12-07T02:22:39;18.43;;;9.00;;
3379;SDS011;1703;51.964;7.642;2022-12-07T02:25:32;11.53;;;8.80;;
3379;SDS011;1703;51.964;7.642;2022-12-07T02:28:09;11.97;;;8.67;;
3379;SDS011;1703;51.964;7.642;2022-12-07T02:30:42;15.30;;;8.07;;
3379;SDS011;1703;51.964;7.642;2022-12-07T02:33:13;11.97;;;8.07;;
3379;SDS011;1703;51.964;7.642;2022-12-07T02:35:45;12.63;;;7.33;;
3379;SDS011;1703;51.964;7.642;2022-12-07T02:38:18;18.40;;;7.90;;
3379;SDS011;1703;51.964;7.642;2022-12-07T02:40:51;15.00;;;7.63;;
3379;SDS011;1703;51.964;7.642;2022-12-07T02:43:22;8.97;;;7.57;;
3379;SDS011;1703;51.964;7.642;2022-12-07T02:45:53;11.67;;;8.10;;
3379;SDS011;1703;51.964;7.642;2022-12-07T02:48:23;12.87;;;7.77;;
3379;SDS011;1703;51.964;7.642;2022-12-07T02:50:52;17.27;;;8.03;;
3379;SDS011;1703;51.964;7.642;2022-12-07T02:53:30;10.43;;;7.90;;
3379;SDS011;1703;51.964;7.642;2022-12-07T02:55:58;9.13;;;7.00;;
3379;SDS011;1703;51.964;7.642;2022-12-07T02:58:31;11.57;;;8.53;;
3379;SDS011;1703;51.964;7.642;2022-12-07T03:01:11;13.57;;;7.70;;
3379;SDS011;1703;51.964;7.642;2022-12-07T03:03:46;9.33;;;6.73;;
3379;SDS011;1703;51.964;7.642;2022-12-07T03:06:20;14.13;;;7.63;;
3379;SDS011;1703;51.964;7.642;2022-12-07T03:08:54;10.80;;;6.93;;
3379;SDS011;1703;51.964;7.642;2022-12-07T03:11:30;9.03;;;6.87;;
3379;SDS011;1703;51.964;7.642;2022-12-07T03:14:07;12.53;;;7.80;;
3379;SDS011;1703;51.964;7.642;2022-12-07T03:16:42;9.93;;;7.03;;
3379;SDS011;1703;51.964;7.642;2022-12-07T03:19:16;14.67;;;7.93;;
3379;SDS011;1703;51.964;7.642;2022-12-07T03:21:46;9.87;;;6.77;;
3379;SDS011;1703;51.964;7.642;2022-12-07T03:24:18;8.90;;;7.47;;
3379;SDS011;1703;51.964;7.642;2022-12-07T03:26:48;10.27;;;6.80;;
3379;SDS011;1703;51.964;7.642;2022-12-07T03:29:19;11.87;;;6.63;;
3379;SDS011;1703;51.964;7.642;2022-12-07T03:31:53;10.67;;;6.80;;
3379;SDS011;1703;51.964;7.642;2022-12-07T03:34:26;15.50;;;7.60;;
3379;SDS011;1703;51.964;7.642;2022-12-07T03:36:57;12.30;;;7.47;;
3379;SDS011;1703;51.964;7.642;2022-12-07T03:39:30;10.23;;;7.17;;
3379;SDS011;1703;51.964;7.642;2022-12-07T03:42:03;10.40;;;6.40;;
3379;SDS011;1703;51.964;7.642;2022-12-07T03:44:33;10.10;;;7.20;;
3379;SDS011;1703;51.964;7.642;2022-12-07T03:47:04;12.07;;;7.37;;
3379;SDS011;1703;51.964;7.642;2022-12-07T03:49:36;14.67;;;6.90;;
3379;SDS011;1703;51.964;7.642;2022-12-07T03:52:08;11.63;;;6.37;;
3379;SDS011;1703;51.964;7.642;2022-12-07T03:54:41;9.27;;;5.97;;
3379;SDS011;1703;51.964;7.642;2022-12-07T03:57:15;10.60;;;6.23;;
3379;SDS011;1703;51.964;7.642;2022-12-07T03:59:43;8.17;;;6.07;;
3379;SDS011;1703;51.964;7.642;2022-12-07T04:02:12;11.97;;;5.60;;
3379;SDS011;1703;51.964;7.642;2022-12-07T04:04:39;19.47;;;7.03;;
3379;SDS011;1703;51.964;7.642;2022-12-07T04:07:07;8.83;;;5.30;;
3379;SDS011;1703;51.964;7.642;2022-12-07T04:09:34;10.87;;;6.07;;
3379;SDS011;1703;51.964;7.642;2022-12-07T04:12:01;9.00;;;5.77;;
3379;SDS011;1703;51.964;7.642;2022-12-07T04:14:28;16.13;;;4.73;;
3379;SDS011;1703;51.964;7.642;2022-12-07T04:16:56;11.07;;;5.70;;
3379;SDS011;1703;51.964;7.642;2022-12-07T04:19:25;8.63;;;5.10;;
3379;SDS011;1703;51.964;7.642;2022-12-07T04:21:53;13.33;;;5.80;;
3379;SDS011;1703;51.964;7.642;2022-12-07T04:24:20;10.30;;;4.87;;
3379;SDS011;1703;51.964;7.642;2022-12-07T04:26:47;9.37;;;5.60;;
3379;SDS011;1703;51.964;7.642;2022-12-07T04:29:14;6.63;;;4.30;;
3379;SDS011;1703;51.964;7.642;2022-12-07T04:31:42;7.67;;;4.20;;
3379;SDS011;1703;51.964;7.642;2022-12-07T04:34:10;6.33;;;4.87;;
3379;SDS011;1703;51.964;7.642;2022-12-07T04:36:39;11.40;;;4.33;;
3379;SDS011;1703;51.964;7.642;2022-12-07T04:39:07;6.63;;;3.60;;
3379;SDS011;1703;51.964;7.642;2022-12-07T04:41:39;7.90;;;3.97;;
3379;SDS011;1703;51.964;7.642;2022-12-07T04:44:06;8.70;;;4.37;;
3379;SDS011;1703;51.964;7.642;2022-12-07T04:46:33;7.00;;;5.37;;
3379;SDS011;1703;51.964;7.642;2022-12-07T04:49:00;5.10;;;3.83;;
3379;SDS011;1703;51.964;7.642;2022-12-07T04:51:27;7.93;;;5.10;;
3379;SDS011;1703;51.964;7.642;2022-12-07T04:53:56;5.07;;;4.13;;
3379;SDS011;1703;51.964;7.642;2022-12-07T04:56:23;6.93;;;3.60;;
3379;SDS011;1703;51.964;7.642;2022-12-07T04:58:51;13.00;;;4.90;;
3379;SDS011;1703;51.964;7.642;2022-12-07T05:01:19;5.10;;;4.20;;
3379;SDS011;1703;51.964;7.642;2022-12-07T05:03:46;9.57;;;3.93;;
3379;SDS011;1703;51.964;7.642;2022-12-07T05:06:13;5.70;;;4.13;;
3379;SDS011;1703;51.964;7.642;2022-12-07T05:08:41;6.17;;;3.53;;
3379;SDS011;1703;51.964;7.642;2022-12-07T05:11:10;11.20;;;4.33;;
3379;SDS011;1703;51.964;7.642;2022-12-07T05:13:58;11.40;;;4.40;;
3379;SDS011;1703;51.964;7.642;2022-12-07T05:16:24;10.63;;;4.93;;
3379;SDS011;1703;51.964;7.642;2022-12-07T05:18:51;6.60;;;4.27;;
3379;SDS011;1703;51.964;7.642;2022-12-07T05:21:18;6.67;;;4.53;;
3379;SDS011;1703;51.964;7.642;2022-12-07T05:23:45;7.67;;;3.80;;
3379;SDS011;1703;51.964;7.642;2022-12-07T05:26:14;13.20;;;4.30;;
3379;SDS011;1703;51.964;7.642;2022-12-07T05:28:41;5.67;;;3.33;;
3379;SDS011;1703;51.964;7.642;2022-12-07T05:31:08;4.97;;;3.07;;
3379;SDS011;1703;51.964;7.642;2022-12-07T05:33:35;3.30;;;3.00;;
3379;SDS011;1703;51.964;7.642;2022-12-07T05:36:02;4.50;;;3.50;;
3379;SDS011;1703;51.964;7.642;2022-12-07T05:38:30;11.70;;;3.50;;
3379;SDS011;1703;51.964;7.642;2022-12-07T05:40:59;7.40;;;2.63;;
3379;SDS011;1703;51.964;7.642;2022-12-07T05:43:29;13.13;;;3.10;;
3379;SDS011;1703;51.964;7.642;2022-12-07T05:45:56;10.63;;;3.20;;
3379;SDS011;1703;51.964;7.642;2022-12-07T05:48:23;7.60;;;3.20;;
3379;SDS011;1703;51.964;7.642;2022-12-07T05:50:51;7.50;;;2.87;;
3379;SDS011;1703;51.964;7.642;2022-12-07T05:53:18;7.70;;;2.77;;
3379;SDS011;1703;51.964;7.642;2022-12-07T05:55:45;7.30;;;4.80;;
3379;SDS011;1703;51.964;7.642;2022-12-07T05:58:12;7.90;;;3.30;;
3379;SDS011;1703;51.964;7.642;2022-12-07T06:00:58;8.43;;;3.30;;
3379;SDS011;1703;51.964;7.642;2022-12-07T06:03:25;13.53;;;2.93;;
3379;SDS011;1703;51.964;7.642;2022-12-07T06:05:52;7.70;;;3.50;;
3379;SDS011;1703;51.964;7.642;2022-12-07T06:08:19;3.97;;;2.77;;
3379;SDS011;1703;51.964;7.642;2022-12-07T06:10:46;7.00;;;3.47;;
3379;SDS011;1703;51.964;7.642;2022-12-07T06:13:34;5.37;;;2.90;;
3379;SDS011;1703;51.964;7.642;2022-12-07T06:16:02;5.23;;;2.40;;
3379;SDS011;1703;51.964;7.642;2022-12-07T06:18:28;6.93;;;3.20;;
3379;SDS011;1703;51.964;7.642;2022-12-07T06:20:55;4.13;;;2.30;;
3379;SDS011;1703;51.964;7.642;2022-12-07T06:23:22;3.73;;;2.67;;
3379;SDS011;1703;51.964;7.642;2022-12-07T06:25:49;4.83;;;2.77;;
3379;SDS011;1703;51.964;7.642;2022-12-07T06:28:15;7.60;;;2.70;;
3379;SDS011;1703;51.964;7.642;2022-12-07T06:30:42;9.93;;;2.73;;
3379;SDS011;1703;51.964;7.642;2022-12-07T06:33:10;8.73;;;2.60;;
3379;SDS011;1703;51.964;7.642;2022-12-07T06:35:37;9.27;;;2.57;;
3379;SDS011;1703;51.964;7.642;2022-12-07T06:38:04;6.80;;;3.30;;
3379;SDS011;1703;51.964;7.642;2022-12-07T06:40:31;3.77;;;2.70;;
3379;SDS011;1703;51.964;7.642;2022-12-07T06:42:58;10.90;;;3.27;;
3379;SDS011;1703;51.964;7.642;2022-12-07T06:45:24;8.50;;;2.57;;
3379;SDS011;1703;51.964;7.642;2022-12-07T06:47:51;4.90;;;2.10;;
3379;SDS011;1703;51.964;7.642;2022-12-07T06:50:19;4.90;;;2.70;;
3379;SDS011;1703;51.964;7.642;2022-12-07T06:52:46;8.53;;;3.43;;
3379;SDS011;1703;51.964;7.642;2022-12-07T06:55:13;7.47;;;2.90;;
3379;SDS011;1703;51.964;7.642;2022-12-07T06:57:40;10.23;;;3.10;;
3379;SDS011;1703;51.964;7.642;2022-12-07T07:00:07;13.17;;;2.57;;
3379;SDS011;1703;51.964;7.642;2022-12-07T07:02:34;6.40;;;2.70;;
3379;SDS011;1703;51.964;7.642;2022-12-07T07:05:01;3.47;;;2.00;;
3379;SDS011;1703;51.964;7.642;2022-12-07T07:07:29;7.77;;;2.40;;
3379;SDS011;1703;51.964;7.642;2022-12-07T07:09:56;2.67;;;2.00;;
3379;SDS011;1703;51.964;7.642;2022-12-07T07:12:23;5.50;;;2.63;;
3379;SDS011;1703;51.964;7.642;2022-12-07T07:14:50;4.30;;;1.80;;
3379;SDS011;1703;51.964;7.642;2022-12-07T07:17:16;8.10;;;2.83;;
3379;SDS011;1703;51.964;7.642;2022-12-07T07:19:43;10.03;;;2.00;;
3379;SDS011;1703;51.964;7.642;2022-12-07T07:22:10;3.57;;;1.90;;
3379;SDS011;1703;51.964;7.642;2022-12-07T07:24:38;2.90;;;2.03;;
3379;SDS011;1703;51.964;7.642;2022-12-07T07:27:06;6.23;;;2.20;;
3379;SDS011;1703;51.964;7.642;2022-12-07T07:29:35;3.03;;;2.10;;
3379;SDS011;1703;51.964;7.642;2022-12-07T07:32:02;7.77;;;2.77;;
3379;SDS011;1703;51.964;7.642;2022-12-07T07:34:29;6.37;;;2.13;;
3379;SDS011;1703;51.964;7.642;2022-12-07T07:36:55;12.53;;;2.50;;
3379;SDS011;1703;51.964;7.642;2022-12-07T07:39:22;6.87;;;2.70;;
3379;SDS011;1703;51.964;7.642;2022-12-07T07:41:50;5.43;;;2.20;;
3379;SDS011;1703;51.964;7.642;2022-12-07T07:44:24;1.93;;;1.63;;
3379;SDS011;1703;51.964;7.642;2022-12-07T07:46:50;2.57;;;1.90;;
3379;SDS011;1703;51.964;7.642;2022-12-07T07:49:17;11.83;;;1.73;;
3379;SDS011;1703;51.964;7.642;2022-12-07T07:51:44;4.70;;;1.90;;
3379;SDS011;1703;51.964;7.642;2022-12-07T07:54:11;4.30;;;2.33;;
3379;SDS011;1703;51.964;7.642;2022-12-07T07:56:37;3.77;;;1.80;;
3379;SDS011;1703;51.964;7.642;2022-12-07T07:59:06;1.97;;;1.87;;
3379;SDS011;1703;51.964;7.642;2022-12-07T08:01:33;9.33;;;3.00;;
3379;SDS011;1703;51.964;7.642;2022-12-07T08:04:00;4.50;;;2.60;;
3379;SDS011;1703;51.964;7.642;2022-12-07T08:06:27;3.10;;;2.10;;
3379;SDS011;1703;51.964;7.642;2022-12-07T08:08:54;7.60;;;1.73;;
3379;SDS011;1703;51.964;7.642;2022-12-07T08:11:23;4.73;;;1.60;;
3379;SDS011;1703;51.964;7.642;2022-12-07T08:13:49;2.93;;;1.50;;
3379;SDS011;1703;51.964;7.642;2022-12-07T08:16:17;2.90;;;1.40;;
3379;SDS011;1703;51.964;7.642;2022-12-07T08:18:44;4.03;;;1.70;;
3379;SDS011;1703;51.964;7.642;2022-12-07T08:21:12;4.40;;;2.60;;
3379;SDS011;1703;51.964;7.642;2022-12-07T08:23:40;4.23;;;1.80;;
3379;SDS011;1703;51.964;7.642;2022-12-07T08:26:08;5.63;;;1.60;;
3379;SDS011;1703;51.964;7.642;2022-12-07T08:28:36;7.30;;;2.63;;
3379;SDS011;1703;51.964;7.642;2022-12-07T08:31:04;7.20;;;2.20;;
3379;SDS011;1703;51.964;7.642;2022-12-07T08:33:33;4.40;;;1.47;;
3379;SDS011;1703;51.964;7.642;2022-12-07T08:36:01;7.83;;;2.37;;
3379;SDS011;1703;51.964;7.642;2022-12-07T08:38:28;7.43;;;2.70;;
3379;SDS011;1703;51.964;7.642;2022-12-07T08:40:56;5.30;;;2.00;;
3379;SDS011;1703;51.964;7.642;2022-12-07T08:43:23;5.50;;;3.00;;
3379;SDS011;1703;51.964;7.642;2022-12-07T08:45:52;7.87;;;2.47;;
3379;SDS011;1703;51.964;7.642;2022-12-07T08:48:27;5.40;;;2.37;;
3379;SDS011;1703;51.964;7.642;2022-12-07T08:50:55;7.13;;;2.50;;
3379;SDS011;1703;51.964;7.642;2022-12-07T08:53:22;7.00;;;2.50;;
3379;SDS011;1703;51.964;7.642;2022-12-07T08:55:49;6.50;;;2.73;;
3379;SDS011;1703;51.964;7.642;2022-12-07T08:58:16;4.43;;;2.17;;
3379;SDS011;1703;51.964;7.642;2022-12-07T09:00:43;5.80;;;2.33;;
3379;SDS011;1703;51.964;7.642;2022-12-07T09:03:09;3.93;;;2.60;;
3379;SDS011;1703;51.964;7.642;2022-12-07T09:05:36;7.60;;;1.93;;
3379;SDS011;1703;51.964;7.642;2022-12-07T09:08:05;6.33;;;1.97;;
3379;SDS011;1703;51.964;7.642;2022-12-07T09:10:32;5.27;;;2.00;;
3379;SDS011;1703;51.964;7.642;2022-12-07T09:12:59;10.43;;;1.77;;
3379;SDS011;1703;51.964;7.642;2022-12-07T09:15:26;12.23;;;3.03;;
3379;SDS011;1703;51.964;7.642;2022-12-07T09:17:53;5.97;;;2.13;;
3379;SDS011;1703;51.964;7.642;2022-12-07T09:20:20;10.47;;;1.93;;
3379;SDS011;1703;51.964;7.642;2022-12-07T09:22:47;3.43;;;2.00;;
3379;SDS011;1703;51.964;7.642;2022-12-07T09:25:16;10.10;;;1.60;;
3379;SDS011;1703;51.964;7.642;2022-12-07T09:27:42;6.33;;;1.40;;
3379;SDS011;1703;51.964;7.642;2022-12-07T09:30:10;8.13;;;2.13;;
3379;SDS011;1703;51.964;7.642;2022-12-07T09:32:37;3.83;;;1.73;;
3379;SDS011;1703;51.964;7.642;2022-12-07T09:35:04;1.63;;;0.87;;
3379;SDS011;1703;51.964;7.642;2022-12-07T09:37:31;4.53;;;1.63;;
3379;SDS011;1703;51.964;7.642;2022-12-07T09:40:00;10.83;;;2.40;;
3379;SDS011;1703;51.964;7.642;2022-12-07T09:42:29;4.67;;;1.73;;
3379;SDS011;1703;51.964;7.642;2022-12-07T09:44:59;6.37;;;2.13;;
3379;SDS011;1703;51.964;7.642;2022-12-07T09:47:27;3.20;;;1.80;;
3379;SDS011;1703;51.964;7.642;2022-12-07T09:49:55;8.60;;;2.07;;
3379;SDS011;1703;51.964;7.642;2022-12-07T09:52:29;7.90;;;2.03;;
3379;SDS011;1703;51.964;7.642;2022-12-07T09:54:57;7.53;;;2.37;;
3379;SDS011;1703;51.964;7.642;2022-12-07T09:57:26;8.10;;;1.70;;
3379;SDS011;1703;51.964;7.642;2022-12-07T09:59:56;3.40;;;1.50;;
3379;SDS011;1703;51.964;7.642;2022-12-07T10:02:31;8.07;;;1.60;;
3379;SDS011;1703;51.964;7.642;2022-12-07T10:05:02;6.40;;;1.80;;
3379;SDS011;1703;51.964;7.642;2022-12-07T10:07:31;15.63;;;2.63;;
3379;SDS011;1703;51.964;7.642;2022-12-07T10:09:57;4.30;;;1.27;;
3379;SDS011;1703;51.964;7.642;2022-12-07T10:12:24;2.60;;;1.67;;
3379;SDS011;1703;51.964;7.642;2022-12-07T10:14:57;3.63;;;1.73;;
3379;SDS011;1703;51.964;7.642;2022-12-07T10:17:31;8.07;;;1.87;;
3379;SDS011;1703;51.964;7.642;2022-12-07T10:20:14;8.00;;;1.80;;
3379;SDS011;1703;51.964;7.642;2022-12-07T10:25:39;3.23;;;1.67;;
3379;SDS011;1703;51.964;7.642;2022-12-07T10:28:11;2.57;;;1.47;;
3379;SDS011;1703;51.964;7.642;2022-12-07T10:30:49;7.67;;;2.30;;
3379;SDS011;1703;51.964;7.642;2022-12-07T10:33:32;4.93;;;1.70;;
3379;SDS011;1703;51.964;7.642;2022-12-07T10:36:01;2.70;;;1.50;;
3379;SDS011;1703;51.964;7.642;2022-12-07T10:38:44;4.20;;;2.20;;
3379;SDS011;1703;51.964;7.642;2022-12-07T10:41:12;3.67;;;1.23;;
3379;SDS011;1703;51.964;7.642;2022-12-07T10:43:46;10.70;;;1.77;;
3379;SDS011;1703;51.964;7.642;2022-12-07T10:52:27;4.23;;;1.97;;
3379;SDS011;1703;51.964;7.642;2022-12-07T10:55:16;17.77;;;2.47;;
3379;SDS011;1703;51.964;7.642;2022-12-07T10:57:52;5.60;;;2.23;;
3379;SDS011;1703;51.964;7.642;2022-12-07T11:00:31;6.87;;;2.23;;
3379;SDS011;1703;51.964;7.642;2022-12-07T11:03:15;5.23;;;1.70;;
3379;SDS011;1703;51.964;7.642;2022-12-07T11:06:06;8.67;;;2.30;;
3379;SDS011;1703;51.964;7.642;2022-12-07T11:08:45;3.67;;;2.10;;
3379;SDS011;1703;51.964;7.642;2022-12-07T11:11:23;2.17;;;1.20;;
3379;SDS011;1703;51.964;7.642;2022-12-07T11:13:59;6.93;;;1.93;;
3379;SDS011;1703;51.964;7.642;2022-12-07T11:16:34;9.90;;;2.20;;
3379;SDS011;1703;51.964;7.642;2022-12-07T11:19:16;15.27;;;2.63;;
3379;SDS011;1703;51.964;7.642;2022-12-07T11:21:56;3.67;;;1.70;;
3379;SDS011;1703;51.964;7.642;2022-12-07T11:24:25;3.97;;;2.00;;
3379;SDS011;1703;51.964;7.642;2022-12-07T11:27:02;4.07;;;2.00;;
3379;SDS011;1703;51.964;7.642;2022-12-07T11:29:39;5.87;;;1.80;;
3379;SDS011;1703;51.964;7.642;2022-12-07T11:32:15;3.37;;;2.20;;
3379;SDS011;1703;51.964;7.642;2022-12-07T11:34:51;3.33;;;1.60;;
3379;SDS011;1703;51.964;7.642;2022-12-07T11:37:29;11.13;;;2.00;;
3379;SDS011;1703;51.964;7.642;2022-12-07T11:39:59;10.53;;;2.17;;
3379;SDS011;1703;51.964;7.642;2022-12-07T11:42:29;10.83;;;2.03;;
3379;SDS011;1703;51.964;7.642;2022-12-07T11:45:00;2.07;;;1.30;;
3379;SDS011;1703;51.964;7.642;2022-12-07T11:47:36;3.47;;;1.40;;
3379;SDS011;1703;51.964;7.642;2022-12-07T11:50:16;14.50;;;1.53;;
3379;SDS011;1703;51.964;7.642;2022-12-07T11:52:53;9.33;;;1.30;;
3379;SDS011;1703;51.964;7.642;2022-12-07T11:55:24;5.00;;;1.60;;
3379;SDS011;1703;51.964;7.642;2022-12-07T11:57:57;2.10;;;1.37;;
3379;SDS011;1703;51.964;7.642;2022-12-07T12:00:29;3.80;;;1.30;;
3379;SDS011;1703;51.964;7.642;2022-12-07T12:02:57;1.93;;;1.20;;
3379;SDS011;1703;51.964;7.642;2022-12-07T12:05:29;2.87;;;1.37;;
3379;SDS011;1703;51.964;7.642;2022-12-07T12:07:59;2.57;;;1.30;;
3379;SDS011;1703;51.964;7.642;2022-12-07T12:10:34;10.97;;;1.30;;
3379;SDS011;1703;51.964;7.642;2022-12-07T12:16:10;5.77;;;1.40;;
3379;SDS011;1703;51.964;7.642;2022-12-07T12:21:38;7.57;;;1.27;;
3379;SDS011;1703;51.964;7.642;2022-12-07T12:24:08;5.80;;;1.67;;
3379;SDS011;1703;51.964;7.642;2022-12-07T12:26:39;2.70;;;1.40;;
3379;SDS011;1703;51.964;7.642;2022-12-07T12:29:20;9.73;;;1.47;;
3379;SDS011;1703;51.964;7.642;2022-12-07T12:32:04;1.30;;;0.83;;
3379;SDS011;1703;51.964;7.642;2022-12-07T12:34:40;1.87;;;1.10;;
3379;SDS011;1703;51.964;7.642;2022-12-07T12:37:44;5.10;;;1.20;;
3379;SDS011;1703;51.964;7.642;2022-12-07T12:58:34;4.83;;;1.40;;
3379;SDS011;1703;51.964;7.642;2022-12-07T13:03:59;9.37;;;1.63;;
3379;SDS011;1703;51.964;7.642;2022-12-07T13:06:35;4.37;;;1.30;;
3379;SDS011;1703;51.964;7.642;2022-12-07T13:09:14;4.57;;;1.60;;
3379;SDS011;1703;51.964;7.642;2022-12-07T13:11:47;9.83;;;1.60;;
3379;SDS011;1703;51.964;7.642;2022-12-07T13:23:13;4.50;;;1.70;;
3379;SDS011;1703;51.964;7.642;2022-12-07T13:25:46;9.60;;;1.60;;
3379;SDS011;1703;51.964;7.642;2022-12-07T13:28:17;7.20;;;1.27;;
3379;SDS011;1703;51.964;7.642;2022-12-07T13:30:46;3.53;;;1.60;;
3379;SDS011;1703;51.964;7.642;2022-12-07T13:33:29;7.00;;;1.97;;
3379;SDS011;1703;51.964;7.642;2022-12-07T13:35:56;4.43;;;1.37;;
3379;SDS011;1703;51.964;7.642;2022-12-07T13:38:27;2.97;;;1.47;;
3379;SDS011;1703;51.964;7.642;2022-12-07T13:41:01;4.90;;;1.50;;
3379;SDS011;1703;51.964;7.642;2022-12-07T13:43:30;10.13;;;2.17;;
3379;SDS011;1703;51.964;7.642;2022-12-07T13:45:57;8.43;;;1.90;;
3379;SDS011;1703;51.964;7.642;2022-12-07T13:48:28;3.20;;;1.40;;
3379;SDS011;1703;51.964;7.642;2022-12-07T13:50:58;4.53;;;1.43;;
3379;SDS011;1703;51.964;7.642;2022-12-07T13:53:27;6.73;;;1.37;;
3379;SDS011;1703;51.964;7.642;2022-12-07T13:55:55;6.13;;;1.50;;
3379;SDS011;1703;51.964;7.642;2022-12-07T13:58:24;12.63;;;2.00;;
3379;SDS011;1703;51.964;7.642;2022-12-07T14:00:52;8.90;;;1.90;;
3379;SDS011;1703;51.964;7.642;2022-12-07T14:03:30;5.57;;;1.43;;
3379;SDS011;1703;51.964;7.642;2022-12-07T14:06:06;9.77;;;1.47;;
3379;SDS011;1703;51.964;7.642;2022-12-07T14:08:40;13.37;;;2.27;;
3379;SDS011;1703;51.964;7.642;2022-12-07T14:11:07;4.80;;;1.17;;
3379;SDS011;1703;51.964;7.642;2022-12-07T14:13:39;11.70;;;2.30;;
3379;SDS011;1703;51.964;7.642;2022-12-07T14:16:17;7.67;;;1.70;;
3379;SDS011;1703;51.964;7.642;2022-12-07T14:18:49;2.17;;;1.43;;
3379;SDS011;1703;51.964;7.642;2022-12-07T14:21:17;9.03;;;1.73;;
3379;SDS011;1703;51.964;7.642;2022-12-07T14:23:45;5.60;;;1.40;;
3379;SDS011;1703;51.964;7.642;2022-12-07T14:26:28;17.67;;;2.10;;
3379;SDS011;1703;51.964;7.642;2022-12-07T14:29:17;6.40;;;1.37;;
3379;SDS011;1703;51.964;7.642;2022-12-07T14:31:56;2.30;;;1.23;;
3379;SDS011;1703;51.964;7.642;2022-12-07T14:34:24;3.57;;;0.90;;
3379;SDS011;1703;51.964;7.642;2022-12-07T14:36:51;5.90;;;1.00;;
3379;SDS011;1703;51.964;7.642;2022-12-07T14:39:18;6.27;;;1.30;;
3379;SDS011;1703;51.964;7.642;2022-12-07T14:41:45;8.80;;;1.20;;
3379;SDS011;1703;51.964;7.642;2022-12-07T14:44:20;8.80;;;1.40;;
3379;SDS011;1703;51.964;7.642;2022-12-07T14:46:48;6.53;;;1.73;;
3379;SDS011;1703;51.964;7.642;2022-12-07T14:49:16;3.00;;;1.00;;
3379;SDS011;1703;51.964;7.642;2022-12-07T14:51:44;2.50;;;1.00;;
3379;SDS011;1703;51.964;7.642;2022-12-07T14:54:14;4.03;;;0.90;;
3379;SDS011;1703;51.964;7.642;2022-12-07T14:56:43;3.40;;;1.00;;
3379;SDS011;1703;51.964;7.642;2022-12-07T14:59:14;7.10;;;1.10;;
3379;SDS011;1703;51.964;7.642;2022-12-07T15:01:43;2.87;;;1.30;;
3379;SDS011;1703;51.964;7.642;2022-12-07T15:04:09;5.27;;;1.10;;
3379;SDS011;1703;51.964;7.642;2022-12-07T15:06:36;12.00;;;1.43;;
3379;SDS011;1703;51.964;7.642;2022-12-07T15:09:03;0.70;;;0.60;;
3379;SDS011;1703;51.964;7.642;2022-12-07T15:11:30;4.20;;;1.50;;
3379;SDS011;1703;51.964;7.642;2022-12-07T15:13:57;3.70;;;0.90;;
3379;SDS011;1703;51.964;7.642;2022-12-07T15:16:38;7.20;;;1.10;;
3379;SDS011;1703;51.964;7.642;2022-12-07T15:19:07;4.40;;;1.30;;
3379;SDS011;1703;51.964;7.642;2022-12-07T15:21:40;5.40;;;2.40;;
3379;SDS011;1703;51.964;7.642;2022-12-07T15:24:08;3.57;;;1.30;;
3379;SDS011;1703;51.964;7.642;2022-12-07T15:26:35;3.03;;;2.20;;
3379;SDS011;1703;51.964;7.642;2022-12-07T15:29:03;7.53;;;1.37;;
3379;SDS011;1703;51.964;7.642;2022-12-07T15:31:30;3.00;;;2.00;;
3379;SDS011;1703;51.964;7.642;2022-12-07T15:33:57;7.17;;;1.50;;
3379;SDS011;1703;51.964;7.642;2022-12-07T15:36:25;9.33;;;1.60;;
3379;SDS011;1703;51.964;7.642;2022-12-07T15:38:53;2.07;;;1.50;;
3379;SDS011;1703;51.964;7.642;2022-12-07T15:41:21;9.13;;;2.10;;
3379;SDS011;1703;51.964;7.642;2022-12-07T15:43:48;5.60;;;2.17;;
3379;SDS011;1703;51.964;7.642;2022-12-07T15:46:33;8.27;;;1.80;;
3379;SDS011;1703;51.964;7.642;2022-12-07T15:49:02;2.63;;;1.67;;
3379;SDS011;1703;51.964;7.642;2022-12-07T15:51:31;3.77;;;1.70;;
3379;SDS011;1703;51.964;7.642;2022-12-07T15:53:58;5.50;;;2.30;;
3379;SDS011;1703;51.964;7.642;2022-12-07T15:56:25;3.03;;;1.33;;
3379;SDS011;1703;51.964;7.642;2022-12-07T15:58:51;3.10;;;1.93;;
3379;SDS011;1703;51.964;7.642;2022-12-07T16:01:18;12.27;;;1.77;;
3379;SDS011;1703;51.964;7.642;2022-12-07T16:03:46;4.80;;;2.07;;
3379;SDS011;1703;51.964;7.642;2022-12-07T16:06:15;3.13;;;1.70;;
3379;SDS011;1703;51.964;7.642;2022-12-07T16:08:44;4.33;;;2.80;;
3379;SDS011;1703;51.964;7.642;2022-12-07T16:11:11;5.17;;;3.00;;
3379;SDS011;1703;51.964;7.642;2022-12-07T16:13:39;2.60;;;2.10;;
3379;SDS011;1703;51.964;7.642;2022-12-07T16:16:06;15.03;;;3.20;;